createdAt,value
2018-08-16T00:00:21.469Z,6.10
2018-08-16T00:02:49.875Z,6.47
2018-08-16T00:05:18.006Z,7.43
2018-08-16T00:07:46.279Z,6.90
2018-08-16T00:10:15.823Z,6.50
2018-08-16T00:12:45.139Z,6.23
2018-08-16T00:15:14.344Z,6.63
2018-08-16T00:17:42.385Z,6.47
2018-08-16T00:20:11.221Z,6.83
2018-08-16T00:22:39.524Z,7.20
2018-08-16T00:25:08.286Z,6.57
2018-08-16T00:27:36.677Z,6.43
2018-08-16T00:30:09.437Z,6.67
2018-08-16T00:32:38.335Z,7.57
2018-08-16T00:35:06.582Z,7.30
2018-08-16T00:37:34.511Z,7.40
2018-08-16T00:40:02.983Z,6.83
2018-08-16T00:42:33.461Z,7.60
2018-08-16T00:45:02.279Z,6.87
2018-08-16T00:47:31.419Z,7.10
2018-08-16T00:49:59.520Z,6.60
2018-08-16T00:52:28.044Z,7.07
2018-08-16T00:54:56.524Z,7.23
2018-08-16T00:57:24.855Z,7.30
2018-08-16T00:59:52.553Z,7.17
2018-08-16T01:02:21.460Z,7.90
2018-08-16T01:04:49.871Z,7.63
2018-08-16T01:07:17.717Z,8.00
2018-08-16T01:09:45.489Z,8.43
2018-08-16T01:12:13.633Z,7.37
2018-08-16T01:14:42.439Z,7.90
2018-08-16T01:17:10.735Z,7.63
2018-08-16T01:19:38.443Z,7.63
2018-08-16T01:22:07.424Z,7.50
2018-08-16T01:24:35.485Z,7.90
2018-08-16T01:27:03.748Z,7.97
2018-08-16T01:29:31.821Z,10.00
2018-08-16T01:32:00.227Z,7.40
2018-08-16T01:34:28.073Z,7.90
2018-08-16T01:36:56.268Z,7.80
2018-08-16T01:39:24.326Z,7.33
2018-08-16T01:41:52.295Z,7.63
2018-08-16T01:44:20.213Z,8.00
2018-08-16T01:46:48.280Z,8.17
2018-08-16T01:49:25.423Z,6.73
2018-08-16T01:51:53.509Z,7.97
2018-08-16T01:54:22.316Z,9.63
2018-08-16T01:56:50.107Z,6.90
2018-08-16T01:59:18.418Z,7.20
2018-08-16T02:01:46.270Z,7.40
2018-08-16T02:04:14.365Z,8.00
2018-08-16T02:06:42.861Z,7.43
2018-08-16T02:09:10.996Z,14.03
2018-08-16T02:11:39.947Z,8.20
2018-08-16T02:14:08.550Z,8.00
2018-08-16T02:16:38.449Z,8.30
2018-08-16T02:19:06.323Z,7.67
2018-08-16T02:21:35.912Z,8.53
2018-08-16T02:24:04.915Z,7.27
2018-08-16T02:26:33.414Z,9.83
2018-08-16T02:29:02.385Z,7.57
2018-08-16T02:31:31.209Z,7.87
2018-08-16T02:33:59.360Z,7.70
2018-08-16T02:36:27.304Z,7.60
2018-08-16T02:38:55.611Z,8.17
2018-08-16T02:41:23.595Z,7.10
2018-08-16T02:43:51.868Z,9.70
2018-08-16T02:46:19.698Z,8.00
2018-08-16T02:48:47.876Z,7.13
2018-08-16T02:51:15.985Z,7.60
2018-08-16T02:53:43.789Z,6.90
2018-08-16T02:56:11.909Z,7.07
2018-08-16T02:58:39.719Z,7.43
2018-08-16T03:01:07.990Z,7.60
2018-08-16T03:03:35.870Z,7.00
2018-08-16T03:06:03.956Z,7.10
2018-08-16T03:08:31.971Z,7.40
2018-08-16T03:10:59.986Z,7.47
2018-08-16T03:13:28.621Z,7.43
2018-08-16T03:15:56.631Z,7.50
2018-08-16T03:18:24.855Z,6.60
2018-08-16T03:20:53.521Z,8.23
2018-08-16T03:23:21.490Z,7.43
2018-08-16T03:25:49.420Z,8.90
2018-08-16T03:28:17.439Z,7.10
2018-08-16T03:30:45.425Z,10.30
2018-08-16T03:33:13.556Z,7.37
2018-08-16T03:35:41.558Z,7.83
2018-08-16T03:38:09.613Z,7.47
2018-08-16T03:40:38.037Z,7.07
2018-08-16T03:43:05.793Z,7.83
2018-08-16T03:45:33.860Z,8.20
2018-08-16T03:48:02.084Z,7.80
2018-08-16T03:50:30.097Z,8.20
2018-08-16T03:52:57.951Z,7.33
2018-08-16T03:55:25.854Z,7.60
2018-08-16T03:57:53.984Z,7.80
2018-08-16T04:00:21.676Z,7.10
2018-08-16T04:02:49.765Z,7.40
2018-08-16T04:05:17.566Z,88.63
2018-08-16T04:07:45.412Z,14.93
2018-08-16T04:10:13.630Z,7.03
2018-08-16T04:12:41.551Z,10.90
2018-08-16T04:15:09.478Z,8.27
2018-08-16T04:17:37.604Z,7.50
2018-08-16T04:20:06.602Z,7.73
2018-08-16T04:22:35.379Z,7.63
2018-08-16T04:25:05.027Z,7.10
2018-08-16T04:27:32.736Z,9.23
2018-08-16T04:30:00.743Z,8.23
2018-08-16T04:32:29.619Z,9.73
2018-08-16T04:34:57.632Z,7.57
2018-08-16T04:37:26.023Z,17.33
2018-08-16T04:39:53.795Z,8.00
2018-08-16T04:42:22.132Z,7.90
2018-08-16T04:44:50.018Z,9.23
2018-08-16T04:47:17.996Z,7.67
2018-08-16T04:49:45.880Z,8.73
2018-08-16T04:52:14.683Z,12.57
2018-08-16T04:54:42.787Z,9.83
2018-08-16T04:57:10.768Z,13.23
2018-08-16T04:59:38.723Z,8.43
2018-08-16T05:02:06.898Z,9.90
2018-08-16T05:04:35.351Z,9.43
2018-08-16T05:07:03.353Z,7.40
2018-08-16T05:09:31.453Z,7.80
2018-08-16T05:11:59.445Z,7.67
2018-08-16T05:14:27.760Z,7.40
2018-08-16T05:16:55.592Z,8.57
2018-08-16T05:19:23.700Z,9.80
2018-08-16T05:21:51.643Z,7.87
2018-08-16T05:24:20.767Z,8.23
2018-08-16T05:26:48.866Z,8.50
2018-08-16T05:29:17.089Z,8.00
2018-08-16T05:31:45.995Z,7.30
2018-08-16T05:34:13.867Z,7.90
2018-08-16T05:36:41.826Z,12.13
2018-08-16T05:39:11.383Z,7.37
2018-08-16T05:41:39.823Z,8.63
2018-08-16T05:44:08.505Z,7.87
2018-08-16T05:46:37.509Z,7.67
2018-08-16T05:49:05.803Z,7.07
2018-08-16T05:51:34.348Z,8.20
2018-08-16T05:54:02.792Z,7.90
2018-08-16T05:56:30.905Z,8.40
2018-08-16T05:58:58.871Z,7.93
2018-08-16T06:01:26.817Z,8.30
2018-08-16T06:03:55.208Z,7.10
2018-08-16T06:06:23.599Z,7.30
2018-08-16T06:08:51.821Z,7.13
2018-08-16T06:11:19.939Z,9.33
2018-08-16T06:13:49.060Z,6.60
2018-08-16T06:16:17.091Z,6.13
2018-08-16T06:18:45.402Z,6.90
2018-08-16T06:21:13.915Z,6.87
2018-08-16T06:23:42.036Z,6.90
2018-08-16T06:26:11.055Z,8.23
2018-08-16T06:28:39.293Z,9.50
2018-08-16T06:31:07.272Z,8.47
2018-08-16T06:33:35.320Z,8.37
2018-08-16T06:36:03.612Z,9.50
2018-08-16T06:38:32.098Z,7.47
2018-08-16T06:41:00.371Z,7.20
2018-08-16T06:43:28.346Z,7.30
2018-08-16T06:45:57.017Z,6.87
2018-08-16T06:48:25.513Z,7.50
2018-08-16T06:50:53.865Z,9.20
2018-08-16T06:53:21.940Z,6.90
2018-08-16T06:55:50.527Z,7.37
2018-08-16T06:58:18.864Z,7.00
2018-08-16T07:00:47.816Z,6.90
2018-08-16T07:03:16.260Z,6.77
2018-08-16T07:05:44.752Z,6.50
2018-08-16T07:08:12.977Z,5.93
2018-08-16T07:10:41.467Z,6.37
2018-08-16T07:13:10.239Z,6.43
2018-08-16T07:15:38.375Z,4.10
2018-08-16T07:18:06.398Z,5.57
2018-08-16T07:20:34.527Z,4.33
2018-08-16T07:23:03.085Z,4.90
2018-08-16T07:25:31.374Z,5.33
2018-08-16T07:27:59.623Z,4.20
2018-08-16T07:30:27.810Z,4.10
2018-08-16T07:32:55.668Z,4.30
2018-08-16T07:35:23.908Z,3.73
2018-08-16T07:37:51.956Z,3.90
2018-08-16T07:40:20.808Z,4.20
2018-08-16T07:42:48.946Z,3.50
2018-08-16T07:45:16.992Z,2.23
2018-08-16T07:47:44.976Z,7.43
2018-08-16T07:50:13.028Z,2.97
2018-08-16T07:52:41.369Z,2.40
2018-08-16T07:55:10.171Z,3.00
2018-08-16T07:57:38.356Z,3.10
2018-08-16T08:00:10.781Z,2.60
2018-08-16T08:02:39.409Z,2.90
2018-08-16T08:05:07.719Z,3.13
2018-08-16T08:07:35.762Z,2.40
2018-08-16T08:10:04.124Z,2.60
2018-08-16T08:12:32.599Z,2.33
2018-08-16T08:15:01.387Z,2.60
2018-08-16T08:17:29.286Z,2.83
2018-08-16T08:19:57.266Z,2.63
2018-08-16T08:22:25.605Z,2.20
2018-08-16T08:24:54.198Z,3.07
2018-08-16T08:27:22.139Z,5.13
2018-08-16T08:29:50.361Z,2.93
2018-08-16T08:32:18.305Z,2.90
2018-08-16T08:34:46.212Z,4.50
2018-08-16T08:37:25.531Z,22.67
2018-08-16T08:39:53.581Z,2.83
2018-08-16T08:42:21.684Z,3.53
2018-08-16T08:44:50.528Z,2.70
2018-08-16T08:47:19.014Z,5.50
2018-08-16T08:49:47.186Z,3.33
2018-08-16T08:52:16.199Z,2.63
2018-08-16T08:54:56.578Z,3.00
2018-08-16T08:57:36.774Z,2.60
2018-08-16T09:00:06.600Z,2.60
2018-08-16T09:02:35.188Z,2.50
2018-08-16T09:05:04.318Z,2.23
2018-08-16T09:07:32.335Z,2.73
2018-08-16T09:11:18.674Z,5.07
2018-08-16T09:13:59.470Z,2.57
2018-08-16T09:16:29.757Z,2.60
2018-08-16T09:18:57.902Z,2.53
2018-08-16T09:21:26.187Z,2.00
2018-08-16T09:23:54.448Z,2.63
2018-08-16T09:26:28.321Z,2.80
2018-08-16T09:28:56.634Z,2.67
2018-08-16T09:31:36.647Z,2.53
2018-08-16T09:34:18.414Z,2.77
2018-08-16T09:36:46.446Z,2.40
2018-08-16T09:39:14.608Z,2.53
2018-08-16T09:41:44.241Z,2.80
2018-08-16T09:44:12.528Z,2.50
2018-08-16T09:46:57.895Z,4.77
2018-08-16T09:49:26.248Z,2.87
2018-08-16T09:51:54.776Z,2.43
2018-08-16T09:54:22.854Z,2.63
2018-08-16T09:56:51.594Z,2.00
2018-08-16T09:59:19.982Z,3.03
2018-08-16T10:01:47.801Z,2.73
2018-08-16T10:04:15.813Z,2.73
2018-08-16T10:06:44.149Z,2.43
2018-08-16T10:09:14.641Z,2.50
2018-08-16T10:11:43.161Z,2.40
2018-08-16T10:14:11.442Z,2.70
2018-08-16T10:16:39.356Z,2.70
2018-08-16T10:19:07.511Z,4.53
2018-08-16T10:21:36.842Z,2.37
2018-08-16T10:24:05.188Z,5.30
2018-08-16T10:26:33.705Z,4.80
2018-08-16T10:29:02.063Z,2.50
2018-08-16T10:31:30.200Z,3.00
2018-08-16T10:33:58.311Z,4.57
2018-08-16T10:36:26.946Z,2.83
2018-08-16T10:38:55.197Z,2.77
2018-08-16T10:41:23.790Z,2.60
2018-08-16T10:43:51.883Z,3.27
2018-08-16T10:46:19.760Z,2.67
2018-08-16T10:48:48.157Z,3.17
2018-08-16T10:51:16.306Z,3.17
2018-08-16T10:53:44.635Z,3.20
2018-08-16T10:56:13.018Z,2.43
2018-08-16T10:58:41.995Z,3.13
2018-08-16T11:01:10.221Z,2.93
2018-08-16T11:03:38.129Z,2.30
2018-08-16T11:06:06.208Z,2.50
2018-08-16T11:08:34.538Z,2.77
2018-08-16T11:11:02.940Z,2.50
2018-08-16T11:13:32.114Z,4.03
2018-08-16T11:16:00.180Z,2.93
2018-08-16T11:18:28.474Z,5.40
2018-08-16T11:20:56.782Z,3.57
2018-08-16T11:23:24.881Z,5.10
2018-08-16T11:25:52.884Z,5.50
2018-08-16T11:28:21.631Z,3.53
2018-08-16T11:30:50.156Z,3.03
2018-08-16T11:33:18.426Z,3.10
2018-08-16T11:35:46.660Z,6.20
2018-08-16T11:38:14.681Z,4.70
2018-08-16T11:40:42.666Z,2.80
2018-08-16T11:43:10.481Z,2.87
2018-08-16T11:45:38.536Z,4.97
2018-08-16T11:48:06.507Z,2.73
2018-08-16T11:50:34.639Z,2.10
2018-08-16T11:53:02.720Z,2.67
2018-08-16T11:55:31.103Z,3.30
2018-08-16T11:57:59.173Z,3.63
2018-08-16T12:00:27.607Z,2.80
2018-08-16T12:02:56.228Z,2.30
2018-08-16T12:05:24.631Z,3.23
2018-08-16T12:07:52.542Z,4.13
2018-08-16T12:10:20.807Z,2.40
2018-08-16T12:12:48.930Z,2.50
2018-08-16T12:15:17.585Z,2.30
2018-08-16T12:17:46.174Z,2.80
2018-08-16T12:20:15.416Z,2.50
2018-08-16T12:22:43.868Z,2.87
2018-08-16T12:25:12.213Z,2.57
2018-08-16T12:27:40.306Z,2.27
2018-08-16T12:30:09.193Z,3.33
2018-08-16T12:32:38.613Z,3.10
2018-08-16T12:35:07.428Z,2.23
2018-08-16T12:37:35.683Z,3.23
2018-08-16T12:40:05.370Z,2.50
2018-08-16T12:42:34.252Z,3.00
2018-08-16T12:45:02.314Z,2.53
2018-08-16T12:47:30.625Z,2.93
2018-08-16T12:49:58.907Z,2.57
2018-08-16T12:52:27.863Z,2.67
2018-08-16T12:54:57.772Z,2.70
2018-08-16T12:57:26.094Z,2.97
2018-08-16T12:59:54.309Z,3.50
2018-08-16T13:02:22.960Z,2.90
2018-08-16T13:04:51.108Z,3.20
2018-08-16T13:07:19.267Z,3.13
2018-08-16T13:09:47.260Z,4.53
2018-08-16T13:12:15.524Z,2.37
2018-08-16T13:14:43.886Z,2.93
2018-08-16T13:17:12.768Z,3.80
2018-08-16T13:19:41.468Z,2.27
2018-08-16T13:22:09.658Z,2.73
2018-08-16T13:24:38.039Z,2.53
2018-08-16T13:27:06.669Z,2.30
2018-08-16T13:29:34.821Z,2.80
2018-08-16T13:32:03.128Z,2.87
2018-08-16T13:34:31.407Z,2.20
2018-08-16T13:37:00.284Z,2.83
2018-08-16T13:39:29.091Z,2.37
2018-08-16T13:41:57.385Z,2.00
2018-08-16T13:44:25.660Z,3.07
2018-08-16T13:46:54.159Z,3.13
2018-08-16T13:49:22.517Z,2.40
2018-08-16T13:51:53.059Z,3.20
2018-08-16T13:54:21.037Z,3.97
2018-08-16T13:56:49.894Z,2.50
2018-08-16T13:59:18.299Z,2.63
2018-08-16T14:01:46.274Z,1.73
2018-08-16T14:04:14.740Z,5.90
2018-08-16T14:06:43.113Z,2.20
2018-08-16T14:09:12.104Z,2.50
2018-08-16T14:11:40.336Z,3.77
2018-08-16T14:14:09.185Z,2.57
2018-08-16T14:16:37.650Z,3.90
2018-08-16T14:19:06.841Z,6.43
2018-08-16T14:21:36.610Z,2.70
2018-08-16T14:24:05.087Z,2.13
2018-08-16T14:26:33.654Z,4.20
2018-08-16T14:29:01.822Z,6.03
2018-08-16T14:31:31.114Z,5.17
2018-08-16T14:33:58.979Z,3.23
2018-08-16T14:36:27.915Z,2.27
2018-08-16T14:38:56.328Z,2.10
2018-08-16T14:41:24.489Z,3.80
2018-08-16T14:43:52.890Z,2.13
2018-08-16T14:46:20.846Z,2.23
2018-08-16T14:48:49.146Z,4.73
2018-08-16T14:51:17.377Z,4.43
2018-08-16T14:53:45.372Z,1.67
2018-08-16T14:56:13.078Z,2.10
2018-08-16T14:58:41.566Z,3.03
2018-08-16T15:01:09.566Z,1.87
2018-08-16T15:03:38.089Z,2.23
2018-08-16T15:06:06.509Z,1.80
2018-08-16T15:08:34.547Z,2.23
2018-08-16T15:11:03.011Z,5.17
2018-08-16T15:13:32.021Z,4.40
2018-08-16T15:16:00.750Z,2.03
2018-08-16T15:18:29.007Z,2.77
2018-08-16T15:20:58.003Z,2.00
2018-08-16T15:23:26.157Z,3.03
2018-08-16T15:25:54.570Z,2.23
2018-08-16T15:28:22.684Z,2.40
2018-08-16T15:30:51.357Z,2.30
2018-08-16T15:33:19.994Z,2.17
2018-08-16T15:35:48.105Z,4.03
2018-08-16T15:38:15.956Z,1.77
2018-08-16T15:40:44.169Z,2.37
2018-08-16T15:43:12.369Z,6.40
2018-08-16T15:45:40.529Z,2.00
2018-08-16T15:48:12.853Z,2.30
2018-08-16T15:50:42.866Z,1.70
2018-08-16T15:53:11.113Z,2.33
2018-08-16T15:55:39.165Z,2.03
2018-08-16T15:58:08.016Z,1.90
2018-08-16T16:00:36.262Z,3.03
2018-08-16T16:03:04.492Z,3.30
2018-08-16T16:05:33.653Z,2.13
2018-08-16T16:08:01.685Z,2.90
2018-08-16T16:10:29.939Z,4.63
2018-08-16T16:12:59.552Z,1.90
2018-08-16T16:15:28.419Z,3.57
2018-08-16T16:17:57.147Z,2.27
2018-08-16T16:20:25.831Z,2.00
2018-08-16T16:22:54.736Z,2.83
2018-08-16T16:25:22.972Z,1.90
2018-08-16T16:27:51.319Z,2.00
2018-08-16T16:30:19.470Z,2.17
2018-08-16T16:32:47.547Z,2.80
2018-08-16T16:35:15.829Z,2.03
2018-08-16T16:37:43.951Z,2.20
2018-08-16T16:40:11.950Z,2.77
2018-08-16T16:42:40.928Z,2.47
2018-08-16T16:45:09.074Z,5.30
2018-08-16T16:47:37.124Z,2.73
2018-08-16T16:50:06.049Z,2.33
2018-08-16T16:52:35.504Z,2.00
2018-08-16T16:55:03.901Z,4.20
2018-08-16T16:57:31.810Z,2.30
2018-08-16T17:00:00.144Z,2.30
2018-08-16T17:02:29.004Z,2.17
2018-08-16T17:04:57.650Z,2.87
2018-08-16T17:07:26.150Z,3.80
2018-08-16T17:09:54.271Z,2.40
2018-08-16T17:12:23.351Z,4.20
2018-08-16T17:14:51.949Z,5.33
2018-08-16T17:17:20.087Z,2.57
2018-08-16T17:19:49.243Z,1.87
2018-08-16T17:22:17.815Z,2.70
2018-08-16T17:24:45.745Z,2.10
2018-08-16T17:27:14.187Z,1.93
2018-08-16T17:29:42.238Z,2.03
2018-08-16T17:32:10.429Z,2.13
2018-08-16T17:34:38.448Z,1.80
2018-08-16T17:37:07.100Z,2.33
2018-08-16T17:39:34.986Z,3.93
2018-08-16T17:42:03.325Z,3.47
2018-08-16T17:44:31.428Z,2.77
2018-08-16T17:46:59.345Z,1.93
2018-08-16T17:49:27.334Z,2.10
2018-08-16T17:51:55.295Z,2.00
2018-08-16T17:54:23.267Z,2.30
2018-08-16T17:56:51.686Z,2.53
2018-08-16T17:59:20.451Z,2.17
2018-08-16T18:01:48.903Z,2.43
2018-08-16T18:04:17.098Z,2.87
2018-08-16T18:06:45.691Z,6.87
2018-08-16T18:09:14.801Z,2.63
2018-08-16T18:11:44.696Z,2.27
2018-08-16T18:14:16.987Z,2.80
2018-08-16T18:16:44.979Z,2.30
2018-08-16T18:19:12.747Z,3.37
2018-08-16T18:21:41.072Z,3.33
2018-08-16T18:24:09.209Z,3.23
2018-08-16T18:26:37.919Z,2.83
2018-08-16T18:29:07.125Z,3.13
2018-08-16T18:31:37.684Z,4.77
2018-08-16T18:34:06.931Z,6.40
2018-08-16T18:36:38.741Z,17.20
2018-08-16T18:39:08.624Z,3.40
2018-08-16T18:41:40.089Z,4.30
2018-08-16T18:44:08.763Z,15.03
2018-08-16T18:46:38.624Z,25.67
2018-08-16T18:49:07.564Z,26.70
2018-08-16T18:51:37.713Z,51.13
2018-08-16T18:54:06.740Z,77.27
2018-08-16T18:56:36.413Z,60.33
2018-08-16T18:59:04.857Z,18.97
2018-08-16T19:01:33.017Z,16.90
2018-08-16T19:04:01.220Z,23.23
2018-08-16T19:06:29.848Z,19.87
2018-08-16T19:08:58.085Z,37.50
2018-08-16T19:11:26.742Z,53.57
2018-08-16T19:13:55.470Z,27.20
2018-08-16T19:16:24.786Z,21.13
2018-08-16T19:18:53.330Z,15.20
2018-08-16T19:21:21.440Z,12.23
2018-08-16T19:23:50.296Z,12.00
2018-08-16T19:26:18.608Z,14.03
2018-08-16T19:28:47.135Z,34.30
2018-08-16T19:31:16.092Z,22.00
2018-08-16T19:33:44.451Z,24.93
2018-08-16T19:36:13.102Z,20.50
2018-08-16T19:38:41.940Z,13.37
2018-08-16T19:41:10.167Z,15.57
2018-08-16T19:43:38.445Z,10.90
2018-08-16T19:46:06.727Z,15.03
2018-08-16T19:48:35.551Z,12.50
2018-08-16T19:51:04.809Z,6.03
2018-08-16T19:53:32.774Z,8.63
2018-08-16T19:56:02.009Z,8.80
2018-08-16T19:58:30.806Z,8.10
2018-08-16T20:00:59.596Z,5.60
2018-08-16T20:03:28.147Z,8.50
2018-08-16T20:05:56.081Z,3.87
2018-08-16T20:08:23.848Z,7.53
2018-08-16T20:10:52.027Z,4.83
2018-08-16T20:13:20.802Z,6.37
2018-08-16T20:15:48.727Z,3.80
2018-08-16T20:18:16.871Z,9.83
2018-08-16T20:20:45.697Z,5.87
2018-08-16T20:23:13.726Z,6.00
2018-08-16T20:25:42.708Z,5.00
2018-08-16T20:28:10.951Z,5.63
2018-08-16T20:30:39.537Z,3.57
2018-08-16T20:33:07.610Z,4.33
2018-08-16T20:35:36.052Z,7.57
2018-08-16T20:38:04.180Z,7.77
2018-08-16T20:40:32.303Z,4.63
2018-08-16T20:43:02.182Z,3.73
2018-08-16T20:45:30.252Z,8.33
2018-08-16T20:47:58.498Z,3.47
2018-08-16T20:50:27.632Z,3.57
2018-08-16T20:52:55.630Z,3.13
2018-08-16T20:55:24.217Z,13.37
2018-08-16T20:57:52.588Z,5.10
2018-08-16T21:00:21.742Z,6.27
2018-08-16T21:02:50.655Z,5.10
2018-08-16T21:05:19.146Z,8.33
2018-08-16T21:07:47.460Z,3.90
2018-08-16T21:10:16.164Z,4.10
2018-08-16T21:12:44.329Z,7.97
2018-08-16T21:15:13.124Z,6.07
2018-08-16T21:17:41.043Z,4.03
2018-08-16T21:20:09.370Z,6.20
2018-08-16T21:22:38.475Z,6.30
2018-08-16T21:25:07.867Z,3.13
2018-08-16T21:27:36.400Z,3.13
2018-08-16T21:30:05.829Z,7.60
2018-08-16T21:32:34.334Z,4.27
2018-08-16T21:35:02.286Z,3.87
2018-08-16T21:37:30.702Z,4.20
2018-08-16T21:39:58.656Z,4.40
2018-08-16T21:42:26.711Z,5.90
2018-08-16T21:44:54.790Z,4.30
2018-08-16T21:47:22.925Z,4.27
2018-08-16T21:49:51.957Z,3.67
2018-08-16T21:52:20.544Z,4.10
2018-08-16T21:54:48.392Z,3.90
2018-08-16T21:57:16.840Z,3.87
2018-08-16T21:59:44.696Z,3.93
2018-08-16T22:02:12.854Z,3.63
2018-08-16T22:04:40.693Z,4.23
2018-08-16T22:07:15.366Z,3.90
2018-08-16T22:09:43.167Z,3.83
2018-08-16T22:12:11.745Z,5.17
2018-08-16T22:14:39.880Z,4.90
2018-08-16T22:17:08.014Z,3.73
2018-08-16T22:19:36.161Z,4.20
2018-08-16T22:22:04.000Z,4.90
2018-08-16T22:24:31.956Z,3.50
2018-08-16T22:26:59.822Z,3.47
2018-08-16T22:29:27.657Z,3.57
2018-08-16T22:31:55.582Z,3.13
2018-08-16T22:34:23.900Z,3.60
2018-08-16T22:36:51.979Z,3.73
2018-08-16T22:39:20.009Z,3.77
2018-08-16T22:41:48.204Z,3.17
2018-08-16T22:44:16.135Z,3.37
2018-08-16T22:46:43.968Z,3.33
2018-08-16T22:49:12.225Z,3.40
2018-08-16T22:51:40.840Z,3.63
2018-08-16T22:54:09.071Z,3.27
2018-08-16T22:56:37.309Z,3.20
2018-08-16T22:59:05.722Z,3.33
2018-08-16T23:01:34.234Z,3.50
2018-08-16T23:04:02.702Z,3.17
2018-08-16T23:06:30.848Z,3.30
2018-08-16T23:08:58.776Z,9.70
2018-08-16T23:11:26.940Z,3.77
2018-08-16T23:13:55.480Z,3.43
2018-08-16T23:16:23.863Z,4.37
2018-08-16T23:18:51.686Z,3.90
2018-08-16T23:21:20.216Z,3.40
2018-08-16T23:23:48.354Z,3.50
2018-08-16T23:26:16.046Z,3.80
2018-08-16T23:28:43.948Z,3.70
2018-08-16T23:31:12.326Z,17.13
2018-08-16T23:33:40.087Z,3.20
2018-08-16T23:36:08.246Z,5.13
2018-08-16T23:38:36.243Z,3.80
2018-08-16T23:41:04.232Z,3.33
2018-08-16T23:43:31.996Z,4.10
2018-08-16T23:46:00.221Z,3.70
2018-08-16T23:48:30.570Z,3.00
2018-08-16T23:50:58.870Z,3.60
2018-08-16T23:53:26.913Z,3.87
2018-08-16T23:55:55.214Z,3.80
2018-08-16T23:58:23.281Z,3.60
